Time;durP1;ratioP1;P1;durP2;ratioP2;P2;SDS_P1;SDS_P2;PMS_P1;PMS_P2;Temp;Humidity;BMP_temperature;BMP_pressure;BME280_temperature;BME280_humidity;BME280_pressure;Samples;Min_cycle;Max_cycle;Signal;HPM_P1;HPM_P2
2023/05/19 00:01:58;;;;;;;;;;;12.90;73.90;;;;;;5033200;28;87402;-40
2023/05/19 00:04:24;;;;;;;;;;;12.90;73.90;;;;;;5032505;28;89153;-40
2023/05/19 00:06:51;;;;;;;;;;;12.90;74.00;;;;;;5032658;28;87234;-41
2023/05/19 00:09:16;;;;;;;;;;;12.90;73.90;;;;;;5033378;27;87291;-40
2023/05/19 00:11:42;;;;;;;;;;;12.90;73.90;;;;;;5032288;28;88090;-40
2023/05/19 00:14:08;;;;;;;;;;;12.90;74.00;;;;;;5034906;28;86356;-40
2023/05/19 00:16:34;;;;;;;;;;;12.90;73.90;;;;;;5032134;28;87009;-41
2023/05/19 00:19:01;;;;;;;;;;;12.90;73.90;;;;;;5036373;27;89501;-41
2023/05/19 00:21:27;;;;;;;;;;;12.90;74.00;;;;;;5031379;28;88434;-40
2023/05/19 00:23:53;;;;;;;;;;;12.90;73.90;;;;;;5034137;28;88013;-40
2023/05/19 00:26:18;;;;;;;;;;;12.90;74.00;;;;;;5031243;28;87174;-40
2023/05/19 00:28:44;;;;;;;;;;;12.90;74.00;;;;;;5034998;28;87437;-40
2023/05/19 00:31:09;;;;;;;;;;;12.90;74.00;;;;;;5030772;28;88004;-40
2023/05/19 00:33:35;;;;;;;;;;;12.90;74.00;;;;;;5034641;28;87207;-40
2023/05/19 00:36:02;;;;;;;;;;;12.80;74.00;;;;;;5031733;27;87382;-40
2023/05/19 00:38:31;;;;;;;;;;;12.80;74.00;;;;;;5034500;28;87081;-41
2023/05/19 00:40:57;;;;;;;;;;;12.80;74.00;;;;;;5034212;28;86987;-40
2023/05/19 00:43:22;;;;;;;;;;;12.80;74.00;;;;;;5033952;28;87811;-40
2023/05/19 00:45:48;;;;;;;;;;;12.80;74.00;;;;;;5030772;28;88110;-40
2023/05/19 00:48:13;;;;;;;;;;;12.80;74.00;;;;;;5033296;28;88277;-41
2023/05/19 00:50:40;;;;;;;;;;;12.80;74.00;;;;;;5031532;28;88182;-40
2023/05/19 00:53:05;;;;;;;;;;;12.80;74.00;;;;;;5033337;28;87174;-41
2023/05/19 00:55:32;;;;;;;;;;;12.80;74.10;;;;;;5032478;27;87792;-40
2023/05/19 00:57:57;;;;;;;;;;;12.80;74.00;;;;;;5032341;28;87538;-40
2023/05/19 01:00:23;;;;;;;;;;;12.80;73.90;;;;;;5032645;28;87135;-40
2023/05/19 01:02:49;;;;;;;;;;;12.80;74.00;;;;;;5035207;28;87177;-40
2023/05/19 01:05:15;;;;;;;;;;;12.80;74.00;;;;;;5032154;28;87219;-40
2023/05/19 01:07:41;;;;;;;;;;;12.80;74.00;;;;;;5031730;28;87027;-39
2023/05/19 01:10:07;;;;;;;;;;;12.80;74.20;;;;;;5032206;28;88824;-40
2023/05/19 01:12:32;;;;;;;;;;;12.80;74.20;;;;;;5031585;28;87728;-40
2023/05/19 01:14:58;;;;;;;;;;;12.80;74.10;;;;;;5033670;27;87836;-40
2023/05/19 01:17:27;;;;;;;;;;;12.70;74.00;;;;;;5030367;28;87996;-40
2023/05/19 01:19:53;;;;;;;;;;;12.80;74.10;;;;;;5033123;28;87266;-40
2023/05/19 01:22:22;;;;;;;;;;;12.80;74.10;;;;;;5030884;28;87342;-40
2023/05/19 01:25:09;;;;;;;;;;;12.70;74.00;;;;;;5035820;28;89747;-40
2023/05/19 01:27:41;;;;;;;;;;;12.80;74.00;;;;;;5034025;28;88960;-40
2023/05/19 01:30:07;;;;;;;;;;;12.80;74.20;;;;;;5024988;28;89292;-41
2023/05/19 01:32:33;;;;;;;;;;;12.70;74.10;;;;;;5033984;28;87085;-41
2023/05/19 01:34:59;;;;;;;;;;;12.80;74.00;;;;;;5029912;27;87940;-40
2023/05/19 01:37:25;;;;;;;;;;;12.70;74.00;;;;;;5033601;28;87930;-41
2023/05/19 01:39:51;;;;;;;;;;;12.70;74.10;;;;;;5030729;28;87111;-40
2023/05/19 01:42:16;;;;;;;;;;;12.70;74.00;;;;;;5033327;28;87223;-41
2023/05/19 01:44:43;;;;;;;;;;;12.70;74.00;;;;;;5030762;28;87971;-40
2023/05/19 01:47:08;;;;;;;;;;;12.70;74.10;;;;;;5035835;28;87057;-40
2023/05/19 01:49:34;;;;;;;;;;;12.70;74.10;;;;;;5031025;28;88680;-40
2023/05/19 01:52:00;;;;;;;;;;;12.70;74.10;;;;;;5033186;28;86311;-40
2023/05/19 01:54:25;;;;;;;;;;;12.70;74.10;;;;;;5031951;28;86928;-40
2023/05/19 01:57:14;;;;;;;;;;;12.70;74.10;;;;;;5031648;28;88108;-40
2023/05/19 01:59:43;;;;;;;;;;;12.70;74.00;;;;;;5027020;28;87916;-40
2023/05/19 02:02:24;;;;;;;;;;;12.70;74.20;;;;;;5032690;28;87591;-40
2023/05/19 02:04:52;;;;;;;;;;;12.70;74.20;;;;;;5032074;28;87884;-40
2023/05/19 02:07:29;;;;;;;;;;;12.60;74.10;;;;;;5032794;28;87115;-40
2023/05/19 02:10:02;;;;;;;;;;;12.60;74.10;;;;;;5026028;28;89393;-40
2023/05/19 02:12:31;;;;;;;;;;;12.70;74.10;;;;;;5032801;28;87030;-40
2023/05/19 02:15:09;;;;;;;;;;;12.70;74.10;;;;;;5030988;28;88079;-41
2023/05/19 02:17:38;;;;;;;;;;;12.70;74.00;;;;;;5030876;28;87284;-41
2023/05/19 02:20:04;;;;;;;;;;;12.70;74.00;;;;;;5032792;28;87338;-40
2023/05/19 02:22:30;;;;;;;;;;;12.60;73.90;;;;;;5030209;27;86979;-40
2023/05/19 02:24:56;;;;;;;;;;;12.60;74.00;;;;;;5031055;28;90267;-40
2023/05/19 02:27:22;;;;;;;;;;;12.60;74.00;;;;;;5030609;28;86901;-41
2023/05/19 02:29:47;;;;;;;;;;;12.60;74.00;;;;;;5034153;28;87379;-40
2023/05/19 02:32:13;;;;;;;;;;;12.60;74.00;;;;;;5031448;28;87132;-40
2023/05/19 02:34:38;;;;;;;;;;;12.60;74.00;;;;;;5031114;28;87626;-41
2023/05/19 02:37:04;;;;;;;;;;;12.60;74.10;;;;;;5031165;28;87899;-41
2023/05/19 02:39:33;;;;;;;;;;;12.60;74.10;;;;;;5030794;28;87057;-40
2023/05/19 02:41:59;;;;;;;;;;;12.50;74.10;;;;;;5032295;27;88963;-41
2023/05/19 02:44:25;;;;;;;;;;;12.60;74.00;;;;;;5033663;28;89223;-40
2023/05/19 02:46:50;;;;;;;;;;;12.60;74.00;;;;;;5035426;28;87097;-40
2023/05/19 02:49:16;;;;;;;;;;;12.60;74.00;;;;;;5033161;28;88007;-41
2023/05/19 02:51:41;;;;;;;;;;;12.50;74.00;;;;;;5038223;28;87965;-40
2023/05/19 02:54:07;;;;;;;;;;;12.50;74.00;;;;;;5033243;28;87438;-40
2023/05/19 02:56:32;;;;;;;;;;;12.50;74.00;;;;;;5035948;28;88055;-40
2023/05/19 02:58:58;;;;;;;;;;;12.50;74.00;;;;;;5032569;28;87089;-40
2023/05/19 03:01:23;;;;;;;;;;;12.50;74.00;;;;;;5028348;28;88794;-40
2023/05/19 03:03:49;;;;;;;;;;;12.50;74.00;;;;;;5035065;28;88203;-40
2023/05/19 03:06:16;;;;;;;;;;;12.50;74.00;;;;;;5032922;28;86831;-40
2023/05/19 03:08:42;;;;;;;;;;;12.50;73.90;;;;;;5035410;28;88217;-40
2023/05/19 03:11:07;;;;;;;;;;;12.50;74.00;;;;;;5032413;28;87810;-40
2023/05/19 03:13:33;;;;;;;;;;;12.50;74.00;;;;;;5037565;28;88039;-40
2023/05/19 03:15:59;;;;;;;;;;;12.50;74.10;;;;;;5032972;28;87954;-40
2023/05/19 03:18:25;;;;;;;;;;;12.50;74.00;;;;;;5034821;28;87146;-40
2023/05/19 03:20:52;;;;;;;;;;;12.50;74.00;;;;;;5033429;27;87636;-40
2023/05/19 03:23:18;;;;;;;;;;;12.50;74.00;;;;;;5034062;28;88399;-40
2023/05/19 03:25:44;;;;;;;;;;;12.50;74.00;;;;;;5033948;28;87215;-41
2023/05/19 03:28:09;;;;;;;;;;;12.50;74.00;;;;;;5033817;28;87420;-40
2023/05/19 03:30:36;;;;;;;;;;;12.50;73.90;;;;;;5034518;28;87479;-40
2023/05/19 03:33:01;;;;;;;;;;;12.50;73.90;;;;;;5033020;28;87240;-40
2023/05/19 03:35:27;;;;;;;;;;;12.50;74.00;;;;;;5036952;28;87841;-40
2023/05/19 03:37:53;;;;;;;;;;;12.40;73.90;;;;;;5031787;28;88827;-40
2023/05/19 03:40:18;;;;;;;;;;;12.50;73.90;;;;;;5034816;27;88386;-40
2023/05/19 03:42:44;;;;;;;;;;;12.50;74.00;;;;;;5032136;28;88181;-40
2023/05/19 03:45:09;;;;;;;;;;;12.40;74.00;;;;;;5035412;28;87137;-40
2023/05/19 03:47:35;;;;;;;;;;;12.40;74.10;;;;;;5031989;28;87336;-40
2023/05/19 03:50:01;;;;;;;;;;;12.40;74.20;;;;;;5035199;28;88384;-40
2023/05/19 03:52:26;;;;;;;;;;;12.40;74.10;;;;;;5031388;28;87152;-40
2023/05/19 03:54:52;;;;;;;;;;;12.40;74.00;;;;;;5037794;28;87380;-40
2023/05/19 03:57:17;;;;;;;;;;;12.40;73.90;;;;;;5032401;28;87163;-40
2023/05/19 03:59:43;;;;;;;;;;;12.40;74.00;;;;;;5034660;28;87008;-40
2023/05/19 04:02:09;;;;;;;;;;;12.40;74.10;;;;;;5031167;28;88063;-40
2023/05/19 04:04:36;;;;;;;;;;;12.40;74.00;;;;;;5033553;28;87154;-40
2023/05/19 04:07:02;;;;;;;;;;;12.40;74.10;;;;;;5032470;27;88969;-40
2023/05/19 04:09:28;;;;;;;;;;;12.40;74.00;;;;;;5033329;28;89227;-40
2023/05/19 04:11:53;;;;;;;;;;;12.40;74.00;;;;;;5032578;28;87151;-40
2023/05/19 04:14:19;;;;;;;;;;;12.40;74.00;;;;;;5033302;28;87346;-40
2023/05/19 04:16:44;;;;;;;;;;;12.40;74.00;;;;;;5035332;28;88065;-41
2023/05/19 04:19:10;;;;;;;;;;;12.40;74.00;;;;;;5032822;28;87357;-40
2023/05/19 04:21:35;;;;;;;;;;;12.40;74.00;;;;;;5033631;28;87947;-41
2023/05/19 04:24:01;;;;;;;;;;;12.30;74.00;;;;;;5032052;28;87044;-41
2023/05/19 04:26:29;;;;;;;;;;;12.40;73.90;;;;;;5033436;27;87926;-39
2023/05/19 04:28:55;;;;;;;;;;;12.30;74.00;;;;;;5031418;28;88035;-40
2023/05/19 04:31:21;;;;;;;;;;;12.40;74.00;;;;;;5034521;28;86982;-40
2023/05/19 04:33:49;;;;;;;;;;;12.40;74.60;;;;;;5031231;28;87687;-40
2023/05/19 04:36:17;;;;;;;;;;;12.30;74.00;;;;;;5032772;28;89309;-41
2023/05/19 04:38:44;;;;;;;;;;;12.30;74.00;;;;;;5033837;28;87009;-40
2023/05/19 04:41:10;;;;;;;;;;;12.40;73.90;;;;;;5033773;28;88032;-40
2023/05/19 04:43:43;;;;;;;;;;;12.30;73.90;;;;;;5031904;28;86262;-40
2023/05/19 04:46:11;;;;;;;;;;;12.30;74.00;;;;;;5033192;28;88065;-41
2023/05/19 04:48:37;;;;;;;;;;;12.30;74.00;;;;;;5031721;28;87179;-41
2023/05/19 04:51:02;;;;;;;;;;;12.30;73.90;;;;;;5031856;27;88118;-40
2023/05/19 04:53:28;;;;;;;;;;;12.40;73.90;;;;;;5031489;28;88356;-40
2023/05/19 04:55:57;;;;;;;;;;;12.30;73.90;;;;;;5033161;27;87971;-40
2023/05/19 04:58:24;;;;;;;;;;;12.30;74.00;;;;;;5031133;28;87227;-40
2023/05/19 05:00:50;;;;;;;;;;;12.30;74.00;;;;;;5035315;27;88792;-40
2023/05/19 05:03:16;;;;;;;;;;;12.40;73.90;;;;;;5030712;28;87802;-40
2023/05/19 05:05:42;;;;;;;;;;;12.40;73.90;;;;;;5030885;28;90204;-40
2023/05/19 05:08:08;;;;;;;;;;;12.40;73.80;;;;;;5030641;28;88752;-40
2023/05/19 05:10:34;;;;;;;;;;;12.40;73.90;;;;;;5032426;28;87492;-40
2023/05/19 05:12:59;;;;;;;;;;;12.40;73.80;;;;;;5030252;28;87224;-41
2023/05/19 05:15:27;;;;;;;;;;;12.40;73.90;;;;;;5025339;28;88480;-40
2023/05/19 05:17:53;;;;;;;;;;;12.40;73.90;;;;;;5025826;28;87214;-40
2023/05/19 05:20:19;;;;;;;;;;;12.40;73.60;;;;;;5033700;28;87201;-40
2023/05/19 05:22:44;;;;;;;;;;;12.40;73.70;;;;;;5033083;28;88308;-40
2023/05/19 05:25:10;;;;;;;;;;;12.40;73.70;;;;;;5033356;28;87021;-40
2023/05/19 05:27:36;;;;;;;;;;;12.40;73.70;;;;;;5030604;28;88054;-41
2023/05/19 05:30:02;;;;;;;;;;;12.40;73.70;;;;;;5032766;28;87801;-41
2023/05/19 05:32:27;;;;;;;;;;;12.50;73.60;;;;;;5031811;28;87040;-40
2023/05/19 05:34:53;;;;;;;;;;;12.50;73.50;;;;;;5031494;28;87917;-40
2023/05/19 05:37:18;;;;;;;;;;;12.50;73.60;;;;;;5032195;28;87402;-40
2023/05/19 05:39:44;;;;;;;;;;;12.50;73.50;;;;;;5031427;28;87755;-40
2023/05/19 05:42:09;;;;;;;;;;;12.40;73.60;;;;;;5032120;28;88199;-40
2023/05/19 05:44:35;;;;;;;;;;;12.40;73.60;;;;;;5034223;28;87809;-40
2023/05/19 05:47:01;;;;;;;;;;;12.50;73.60;;;;;;5031919;28;87999;-41
2023/05/19 05:49:26;;;;;;;;;;;12.40;73.50;;;;;;5030973;28;87228;-41
2023/05/19 05:51:52;;;;;;;;;;;12.40;73.70;;;;;;5033080;27;87765;-41
2023/05/19 05:54:20;;;;;;;;;;;12.40;73.70;;;;;;5030111;28;87363;-40
2023/05/19 05:56:46;;;;;;;;;;;12.40;73.80;;;;;;5033283;28;86251;-40
2023/05/19 05:59:12;;;;;;;;;;;12.40;73.80;;;;;;5030543;28;87251;-41
2023/05/19 06:01:37;;;;;;;;;;;12.40;73.80;;;;;;5033425;28;87072;-40
2023/05/19 06:04:03;;;;;;;;;;;12.40;73.80;;;;;;5031381;28;88112;-40
2023/05/19 06:06:28;;;;;;;;;;;12.50;73.80;;;;;;5033345;28;86984;-40
2023/05/19 06:08:54;;;;;;;;;;;12.50;73.80;;;;;;5030178;28;87206;-40
2023/05/19 06:11:20;;;;;;;;;;;12.50;73.90;;;;;;5033157;28;87447;-40
2023/05/19 06:13:45;;;;;;;;;;;12.50;73.70;;;;;;5029705;28;89703;-40
2023/05/19 06:16:11;;;;;;;;;;;12.50;73.90;;;;;;5032657;28;87093;-40
2023/05/19 06:18:36;;;;;;;;;;;12.50;74.10;;;;;;5033421;28;87526;-40
2023/05/19 06:21:02;;;;;;;;;;;12.50;73.90;;;;;;5035842;28;87429;-41
2023/05/19 06:23:29;;;;;;;;;;;12.50;73.90;;;;;;5034408;28;87087;-40
2023/05/19 06:25:55;;;;;;;;;;;12.50;73.80;;;;;;5037277;28;88821;-40
2023/05/19 06:28:21;;;;;;;;;;;12.50;73.90;;;;;;5033794;28;88072;-40
2023/05/19 06:30:46;;;;;;;;;;;12.50;73.80;;;;;;5034184;28;87771;-40
2023/05/19 06:33:12;;;;;;;;;;;12.50;73.90;;;;;;5033830;28;88870;-40
2023/05/19 06:35:37;;;;;;;;;;;12.50;73.90;;;;;;5033958;28;87273;-40
2023/05/19 06:38:03;;;;;;;;;;;12.60;74.30;;;;;;5034982;28;87357;-40
2023/05/19 06:40:28;;;;;;;;;;;12.60;74.50;;;;;;5032940;28;87997;-41
2023/05/19 06:42:54;;;;;;;;;;;12.50;74.50;;;;;;5035083;28;87072;-41
2023/05/19 06:45:21;;;;;;;;;;;12.60;74.50;;;;;;5031809;28;88028;-40
2023/05/19 06:47:49;;;;;;;;;;;12.60;74.60;;;;;;5037919;28;87021;-40
2023/05/19 06:50:15;;;;;;;;;;;12.60;74.60;;;;;;5032236;28;88785;-40
2023/05/19 06:52:40;;;;;;;;;;;12.60;74.80;;;;;;5034074;28;90312;-40
2023/05/19 06:55:06;;;;;;;;;;;12.70;74.70;;;;;;5031834;28;87103;-41
2023/05/19 06:57:32;;;;;;;;;;;12.60;74.80;;;;;;5035635;28;87429;-40
2023/05/19 06:59:57;;;;;;;;;;;12.70;74.60;;;;;;5031947;28;88016;-41
2023/05/19 07:02:23;;;;;;;;;;;12.70;74.50;;;;;;5034709;28;87140;-40
2023/05/19 07:04:50;;;;;;;;;;;12.70;74.90;;;;;;5032333;28;87087;-40
2023/05/19 07:07:15;;;;;;;;;;;12.70;75.00;;;;;;5033637;28;88180;-40
2023/05/19 07:09:41;;;;;;;;;;;12.70;74.70;;;;;;5035514;28;86376;-40
2023/05/19 07:12:06;;;;;;;;;;;12.70;75.00;;;;;;5033202;28;87882;-40
2023/05/19 07:14:32;;;;;;;;;;;12.70;75.10;;;;;;5033185;28;87087;-40
2023/05/19 07:16:58;;;;;;;;;;;12.70;75.40;;;;;;5032980;28;88752;-41
2023/05/19 07:19:23;;;;;;;;;;;12.80;74.90;;;;;;5033372;28;87888;-40
2023/05/19 07:21:49;;;;;;;;;;;12.80;74.90;;;;;;5032915;28;87030;-40
2023/05/19 07:24:15;;;;;;;;;;;12.80;74.80;;;;;;5033369;27;87987;-40
2023/05/19 07:26:41;;;;;;;;;;;12.80;75.00;;;;;;5032088;28;88161;-40
2023/05/19 07:29:06;;;;;;;;;;;12.80;75.40;;;;;;5033062;28;87106;-40
2023/05/19 07:31:32;;;;;;;;;;;12.80;75.20;;;;;;5034385;28;87526;-40
2023/05/19 07:33:58;;;;;;;;;;;12.90;75.30;;;;;;5033301;28;86370;-40
2023/05/19 07:36:24;;;;;;;;;;;12.80;75.40;;;;;;5030781;28;87118;-41
2023/05/19 07:38:50;;;;;;;;;;;12.70;75.70;;;;;;5033995;28;89694;-41
2023/05/19 07:41:15;;;;;;;;;;;12.80;75.30;;;;;;5029864;28;87887;-41
2023/05/19 07:43:41;;;;;;;;;;;12.60;76.20;;;;;;5026893;28;88635;-40
2023/05/19 07:46:07;;;;;;;;;;;12.60;76.60;;;;;;5033713;28;88108;-40
2023/05/19 07:48:32;;;;;;;;;;;12.50;76.80;;;;;;5030386;28;87731;-40
2023/05/19 07:50:58;;;;;;;;;;;12.50;76.90;;;;;;5033049;28;88962;-40
2023/05/19 07:53:23;;;;;;;;;;;12.60;76.90;;;;;;5033489;28;88012;-41
2023/05/19 07:55:49;;;;;;;;;;;12.50;77.30;;;;;;5033208;28;87928;-41
2023/05/19 07:58:15;;;;;;;;;;;12.50;77.10;;;;;;5031839;28;87419;-40
2023/05/19 08:00:44;;;;;;;;;;;12.50;77.60;;;;;;5031722;28;87336;-40
2023/05/19 08:03:10;;;;;;;;;;;12.50;77.50;;;;;;5030527;28;87427;-40
2023/05/19 08:05:35;;;;;;;;;;;12.60;77.70;;;;;;5030169;28;89848;-40
2023/05/19 08:08:01;;;;;;;;;;;12.60;77.60;;;;;;5031587;28;87672;-40
2023/05/19 08:10:27;;;;;;;;;;;12.50;77.80;;;;;;5031033;28;87936;-40
2023/05/19 08:12:52;;;;;;;;;;;12.50;77.90;;;;;;5034505;28;88156;-40
2023/05/19 08:15:18;;;;;;;;;;;12.50;78.10;;;;;;5030741;28;87961;-40
2023/05/19 08:17:44;;;;;;;;;;;12.60;78.10;;;;;;5031163;28;89422;-40
2023/05/19 08:20:11;;;;;;;;;;;12.60;78.20;;;;;;5029999;28;87120;-40
2023/05/19 08:22:36;;;;;;;;;;;12.60;78.40;;;;;;5032179;28;88779;-40
2023/05/19 08:25:03;;;;;;;;;;;12.60;78.40;;;;;;5029301;28;88214;-41
2023/05/19 08:27:29;;;;;;;;;;;12.60;78.50;;;;;;5032488;28;87292;-40
2023/05/19 08:29:55;;;;;;;;;;;12.70;78.40;;;;;;5029679;28;88161;-39
2023/05/19 08:32:20;;;;;;;;;;;12.60;78.50;;;;;;5028694;28;90283;-41
2023/05/19 08:34:46;;;;;;;;;;;12.60;78.60;;;;;;5035951;28;86968;-40
2023/05/19 08:37:11;;;;;;;;;;;12.60;78.60;;;;;;5029206;28;88163;-41
2023/05/19 08:39:37;;;;;;;;;;;12.70;78.60;;;;;;5032337;28;87165;-40
2023/05/19 08:42:03;;;;;;;;;;;12.70;78.80;;;;;;5030049;28;88117;-40
2023/05/19 08:44:29;;;;;;;;;;;12.70;78.70;;;;;;5032193;28;87333;-40
2023/05/19 08:46:55;;;;;;;;;;;12.70;78.80;;;;;;5030357;28;86474;-40
2023/05/19 08:49:22;;;;;;;;;;;12.70;78.80;;;;;;5031977;28;87473;-40
2023/05/19 08:52:06;;;;;;;;;;;12.70;78.80;;;;;;5030023;28;88151;-41
2023/05/19 08:54:37;;;;;;;;;;;12.70;78.50;;;;;;5026623;28;88538;-40
2023/05/19 08:57:04;;;;;;;;;;;12.80;78.90;;;;;;5034030;27;88294;-41
2023/05/19 08:59:29;;;;;;;;;;;12.80;78.80;;;;;;5029946;28;87222;-41
2023/05/19 09:01:55;;;;;;;;;;;12.80;78.50;;;;;;5031236;28;87476;-40
2023/05/19 09:04:22;;;;;;;;;;;12.90;78.70;;;;;;5028611;28;89314;-40
2023/05/19 09:06:49;;;;;;;;;;;12.90;78.70;;;;;;5031811;28;86989;-40
2023/05/19 09:09:16;;;;;;;;;;;12.90;79.60;;;;;;5029560;28;87088;-40
2023/05/19 09:11:44;;;;;;;;;;;12.90;79.00;;;;;;5032651;28;87345;-40
2023/05/19 09:14:10;;;;;;;;;;;12.90;79.00;;;;;;5029436;28;87059;-40
2023/05/19 09:16:54;;;;;;;;;;;12.80;79.00;;;;;;5031447;28;87638;-41
2023/05/19 09:19:20;;;;;;;;;;;12.90;79.00;;;;;;5033648;28;88717;-41
2023/05/19 09:21:45;;;;;;;;;;;12.90;79.00;;;;;;5030544;28;88340;-41
2023/05/19 09:24:11;;;;;;;;;;;13.00;78.80;;;;;;5030902;28;87851;-40
2023/05/19 09:26:40;;;;;;;;;;;13.00;79.10;;;;;;5030402;28;87095;-40
2023/05/19 09:29:15;;;;;;;;;;;12.90;79.00;;;;;;5031751;28;89063;-41
2023/05/19 09:32:07;;;;;;;;;;;13.00;79.00;;;;;;5031986;28;89601;-40
2023/05/19 09:34:32;;;;;;;;;;;13.00;78.90;;;;;;5029464;28;87209;-40
2023/05/19 09:36:58;;;;;;;;;;;13.10;78.80;;;;;;5030208;28;88605;-40
2023/05/19 09:39:24;;;;;;;;;;;13.00;78.80;;;;;;5030591;28;89427;-40
2023/05/19 09:41:52;;;;;;;;;;;13.10;79.00;;;;;;5033120;28;87523;-40
2023/05/19 09:44:30;;;;;;;;;;;13.10;79.00;;;;;;5030170;28;90273;-40
2023/05/19 09:46:56;;;;;;;;;;;13.10;79.00;;;;;;5025240;28;87473;-40
2023/05/19 09:49:22;;;;;;;;;;;13.20;78.80;;;;;;5032563;28;88115;-40
2023/05/19 09:51:57;;;;;;;;;;;13.20;78.80;;;;;;5030077;27;89132;-40
2023/05/19 09:54:23;;;;;;;;;;;13.20;78.90;;;;;;5029734;28;87390;-40
2023/05/19 09:56:58;;;;;;;;;;;13.20;78.80;;;;;;5035801;28;87326;-40
2023/05/19 09:59:25;;;;;;;;;;;13.30;78.50;;;;;;5033221;28;89330;-40
2023/05/19 10:01:54;;;;;;;;;;;13.30;78.50;;;;;;5034892;28;86255;-40
2023/05/19 10:04:21;;;;;;;;;;;13.30;78.50;;;;;;5036395;28;88097;-40
2023/05/19 10:06:48;;;;;;;;;;;13.30;78.50;;;;;;5035011;28;87164;-39
2023/05/19 10:09:14;;;;;;;;;;;13.40;78.20;;;;;;5034853;28;89170;-40
2023/05/19 10:11:40;;;;;;;;;;;13.40;78.50;;;;;;5032846;28;89167;-41
2023/05/19 10:14:06;;;;;;;;;;;13.40;78.50;;;;;;5035689;28;87575;-40
2023/05/19 10:16:32;;;;;;;;;;;13.40;78.30;;;;;;5032586;28;88873;-41
2023/05/19 10:18:58;;;;;;;;;;;13.40;78.30;;;;;;5034293;28;89722;-40
2023/05/19 10:21:23;;;;;;;;;;;13.50;78.10;;;;;;5032735;28;87093;-41
2023/05/19 10:23:49;;;;;;;;;;;13.50;78.10;;;;;;5037789;28;89181;-41
2023/05/19 10:26:15;;;;;;;;;;;13.50;77.90;;;;;;5032588;28;86828;-40
2023/05/19 10:28:42;;;;;;;;;;;13.60;77.70;;;;;;5036432;28;86971;-40
2023/05/19 10:31:10;;;;;;;;;;;13.60;77.70;;;;;;5028431;28;89607;-40
2023/05/19 10:33:47;;;;;;;;;;;13.60;77.60;;;;;;5027533;28;88223;-40
2023/05/19 10:36:23;;;;;;;;;;;13.60;77.80;;;;;;5034646;28;88322;-41
2023/05/19 10:38:49;;;;;;;;;;;13.60;77.70;;;;;;5035342;28;89498;-41
2023/05/19 10:41:30;;;;;;;;;;;13.70;77.50;;;;;;5033810;28;87182;-41
2023/05/19 10:44:14;;;;;;;;;;;13.70;77.40;;;;;;5028134;28;88733;-40
2023/05/19 10:46:40;;;;;;;;;;;13.70;77.60;;;;;;5035994;27;89499;-41
2023/05/19 10:49:08;;;;;;;;;;;13.80;77.40;;;;;;5035114;28;88097;-40
2023/05/19 10:51:35;;;;;;;;;;;13.80;77.30;;;;;;5032614;28;89417;-40
2023/05/19 10:54:01;;;;;;;;;;;13.80;77.30;;;;;;5033431;28;87145;-41
2023/05/19 10:56:32;;;;;;;;;;;13.80;77.10;;;;;;5033916;28;88831;-41
2023/05/19 10:58:58;;;;;;;;;;;13.80;77.00;;;;;;5033899;28;90732;-40
2023/05/19 11:01:28;;;;;;;;;;;13.80;77.00;;;;;;5032463;28;87636;-40
2023/05/19 11:03:56;;;;;;;;;;;13.90;76.80;;;;;;5034091;27;88956;-40
2023/05/19 11:06:25;;;;;;;;;;;14.00;76.70;;;;;;5032200;28;89135;-41
2023/05/19 11:08:54;;;;;;;;;;;14.00;76.50;;;;;;5037477;28;87155;-40
2023/05/19 11:11:21;;;;;;;;;;;14.00;76.60;;;;;;5030506;28;89211;-41
2023/05/19 11:13:49;;;;;;;;;;;14.00;76.60;;;;;;5035234;28;87177;-40
2023/05/19 11:16:17;;;;;;;;;;;14.00;76.40;;;;;;5032615;28;88776;-41
2023/05/19 11:18:46;;;;;;;;;;;14.10;76.40;;;;;;5027031;28;89596;-40
2023/05/19 11:21:11;;;;;;;;;;;14.20;76.00;;;;;;5027808;28;87525;-41
2023/05/19 11:23:38;;;;;;;;;;;14.20;75.80;;;;;;5035208;28;89211;-41
2023/05/19 11:26:05;;;;;;;;;;;14.20;75.80;;;;;;5031769;28;89398;-41
2023/05/19 11:28:31;;;;;;;;;;;14.30;75.80;;;;;;5035494;28;87174;-41
2023/05/19 11:30:57;;;;;;;;;;;14.30;75.70;;;;;;5035201;27;89103;-40
2023/05/19 11:33:26;;;;;;;;;;;14.40;75.40;;;;;;5035334;28;87015;-40
2023/05/19 11:35:53;;;;;;;;;;;14.50;75.00;;;;;;5031503;27;87911;-40
2023/05/19 11:38:19;;;;;;;;;;;14.50;75.10;;;;;;5034795;28;90170;-40
2023/05/19 11:40:46;;;;;;;;;;;14.50;74.80;;;;;;5032471;28;86404;-40
2023/05/19 11:43:12;;;;;;;;;;;14.60;74.80;;;;;;5033923;28;87965;-40
2023/05/19 11:45:37;;;;;;;;;;;14.60;74.40;;;;;;5032244;28;89524;-40
2023/05/19 11:48:04;;;;;;;;;;;14.70;74.40;;;;;;5033794;28;88382;-40
2023/05/19 11:50:30;;;;;;;;;;;14.60;74.20;;;;;;5032154;28;89515;-40
2023/05/19 11:52:56;;;;;;;;;;;14.70;74.40;;;;;;5035713;28;89352;-40
2023/05/19 11:55:22;;;;;;;;;;;14.70;74.40;;;;;;5035477;28;87441;-41
2023/05/19 11:58:05;;;;;;;;;;;14.70;74.40;;;;;;5032983;28;89144;-40
2023/05/19 12:00:38;;;;;;;;;;;14.70;74.20;;;;;;5028184;28;86965;-41
2023/05/19 12:03:04;;;;;;;;;;;14.80;73.80;;;;;;5034510;28;88828;-41
2023/05/19 12:05:30;;;;;;;;;;;14.80;73.80;;;;;;5031872;28;88953;-40
2023/05/19 12:07:56;;;;;;;;;;;14.80;74.50;;;;;;5033866;28;87078;-41
2023/05/19 12:10:29;;;;;;;;;;;14.90;73.70;;;;;;5031896;28;87623;-40
2023/05/19 12:12:54;;;;;;;;;;;14.90;73.90;;;;;;5032955;28;90643;-41
2023/05/19 12:15:21;;;;;;;;;;;14.90;73.40;;;;;;5033450;27;87006;-41
2023/05/19 12:17:50;;;;;;;;;;;14.90;73.80;;;;;;5032756;28;88034;-41
2023/05/19 12:20:19;;;;;;;;;;;15.00;73.90;;;;;;5030710;28;87111;-40
2023/05/19 12:22:45;;;;;;;;;;;15.00;73.50;;;;;;5032002;28;88923;-41
2023/05/19 12:25:11;;;;;;;;;;;15.00;73.70;;;;;;5030137;28;89130;-40
2023/05/19 12:27:36;;;;;;;;;;;15.00;73.80;;;;;;5033073;28;87864;-40
2023/05/19 12:30:03;;;;;;;;;;;15.00;74.00;;;;;;5030675;28;89378;-41
2023/05/19 12:32:28;;;;;;;;;;;15.00;73.70;;;;;;5032191;28;89458;-41
2023/05/19 12:34:57;;;;;;;;;;;15.00;73.50;;;;;;5033533;28;87113;-40
2023/05/19 12:37:26;;;;;;;;;;;15.10;73.50;;;;;;5032499;28;90175;-41
2023/05/19 12:39:52;;;;;;;;;;;15.10;72.50;;;;;;5031352;28;87705;-40
2023/05/19 12:42:17;;;;;;;;;;;15.20;72.80;;;;;;5033560;27;88910;-40
2023/05/19 12:44:46;;;;;;;;;;;15.20;72.70;;;;;;5030819;28;90022;-40
2023/05/19 12:47:13;;;;;;;;;;;15.20;72.80;;;;;;5033119;28;87103;-40
2023/05/19 12:49:57;;;;;;;;;;;15.20;72.50;;;;;;5029981;28;88834;-40
2023/05/19 12:52:23;;;;;;;;;;;15.20;72.60;;;;;;5030704;27;89758;-41
2023/05/19 12:54:49;;;;;;;;;;;15.20;72.70;;;;;;5032709;28;86384;-41
2023/05/19 12:57:19;;;;;;;;;;;15.20;72.70;;;;;;5034052;27;88147;-41
2023/05/19 12:59:46;;;;;;;;;;;15.20;72.60;;;;;;5032756;28;87578;-41
2023/05/19 13:02:11;;;;;;;;;;;15.20;72.30;;;;;;5030832;28;88012;-40
2023/05/19 13:04:37;;;;;;;;;;;15.20;72.60;;;;;;5031927;28;89449;-40
2023/05/19 13:07:02;;;;;;;;;;;15.20;72.40;;;;;;5031997;28;87361;-41
2023/05/19 13:09:28;;;;;;;;;;;15.20;72.70;;;;;;5032420;28;88934;-41
2023/05/19 13:11:53;;;;;;;;;;;15.20;72.60;;;;;;5032002;28;89490;-41
2023/05/19 13:14:19;;;;;;;;;;;15.20;73.10;;;;;;5031975;28;87133;-40
2023/05/19 13:16:45;;;;;;;;;;;15.10;73.00;;;;;;5032807;27;88724;-40
2023/05/19 13:19:13;;;;;;;;;;;15.20;73.10;;;;;;5034665;28;88466;-41
2023/05/19 13:21:39;;;;;;;;;;;15.20;73.40;;;;;;5032755;28;87253;-40
2023/05/19 13:24:04;;;;;;;;;;;15.20;73.50;;;;;;5031075;28;89279;-41
2023/05/19 13:26:30;;;;;;;;;;;15.20;73.10;;;;;;5031659;27;88764;-40
2023/05/19 13:28:55;;;;;;;;;;;15.30;73.50;;;;;;5030655;28;89818;-41
2023/05/19 13:31:21;;;;;;;;;;;15.20;73.60;;;;;;5032993;28;89659;-40
2023/05/19 13:33:46;;;;;;;;;;;15.30;73.50;;;;;;5030435;28;87153;-40
2023/05/19 13:36:12;;;;;;;;;;;15.30;73.50;;;;;;5034357;28;87718;-40
2023/05/19 13:38:39;;;;;;;;;;;15.30;73.40;;;;;;5029663;28;88998;-41
2023/05/19 13:41:04;;;;;;;;;;;15.30;73.60;;;;;;5036520;28;87167;-41
2023/05/19 13:43:30;;;;;;;;;;;15.30;73.50;;;;;;5030738;28;87782;-40
2023/05/19 13:45:56;;;;;;;;;;;15.30;73.60;;;;;;5032848;28;87124;-41
2023/05/19 13:48:21;;;;;;;;;;;15.40;73.50;;;;;;5030932;27;88981;-41
2023/05/19 13:50:47;;;;;;;;;;;15.40;73.50;;;;;;5031487;28;90370;-40
2023/05/19 13:53:12;;;;;;;;;;;15.40;73.40;;;;;;5031209;28;87123;-41
2023/05/19 13:55:38;;;;;;;;;;;15.40;73.40;;;;;;5031853;28;89134;-40
2023/05/19 13:58:03;;;;;;;;;;;15.40;73.40;;;;;;5033222;28;89438;-40
2023/05/19 14:00:30;;;;;;;;;;;15.40;73.50;;;;;;5031920;28;87061;-40
2023/05/19 14:02:55;;;;;;;;;;;15.40;73.40;;;;;;5033993;28;88943;-40
2023/05/19 14:05:21;;;;;;;;;;;15.40;73.70;;;;;;5031812;28;88089;-41
2023/05/19 14:07:46;;;;;;;;;;;15.40;73.40;;;;;;5031747;28;87443;-41
2023/05/19 14:10:12;;;;;;;;;;;15.50;73.50;;;;;;5031845;28;89631;-41
2023/05/19 14:12:38;;;;;;;;;;;15.50;73.50;;;;;;5030326;28;87135;-40
2023/05/19 14:15:04;;;;;;;;;;;15.50;73.50;;;;;;5032327;28;88665;-40